sensor_id;sensor_type;location;lat;lon;timestamp;pressure;altitude;pressure_sealevel;temperature
69186;BMP280;56298;49.246;9.410;2023-08-31T00:01:02;98829.50;;;15.38
69186;BMP280;56298;49.246;9.410;2023-08-31T00:03:29;98839.81;;;15.27
69186;BMP280;56298;49.246;9.410;2023-08-31T00:05:55;98835.88;;;15.20
69186;BMP280;56298;49.246;9.410;2023-08-31T00:08:20;98841.41;;;15.20
69186;BMP280;56298;49.246;9.410;2023-08-31T00:10:54;98842.53;;;15.34
69186;BMP280;56298;49.246;9.410;2023-08-31T00:13:20;98846.09;;;15.27
69186;BMP280;56298;49.246;9.410;2023-08-31T00:15:46;98846.44;;;15.33
69186;BMP280;56298;49.246;9.410;2023-08-31T00:18:11;98849.22;;;15.33
69186;BMP280;56298;49.246;9.410;2023-08-31T00:20:38;98845.63;;;15.39
69186;BMP280;56298;49.246;9.410;2023-08-31T00:23:03;98852.41;;;15.28
69186;BMP280;56298;49.246;9.410;2023-08-31T00:25:28;98844.47;;;15.41
69186;BMP280;56298;49.246;9.410;2023-08-31T00:27:54;98849.22;;;15.33
69186;BMP280;56298;49.246;9.410;2023-08-31T00:30:20;98851.25;;;15.25
69186;BMP280;56298;49.246;9.410;2023-08-31T00:32:45;98859.16;;;15.16
69186;BMP280;56298;49.246;9.410;2023-08-31T00:35:12;98853.28;;;15.14
69186;BMP280;56298;49.246;9.410;2023-08-31T00:37:37;98848.56;;;15.03
69186;BMP280;56298;49.246;9.410;2023-08-31T00:40:03;98846.97;;;15.02
69186;BMP280;56298;49.246;9.410;2023-08-31T00:42:30;98848.19;;;14.90
69186;BMP280;56298;49.246;9.410;2023-08-31T00:44:55;98851.34;;;14.85
69186;BMP280;56298;49.246;9.410;2023-08-31T00:47:21;98853.72;;;14.76
69186;BMP280;56298;49.246;9.410;2023-08-31T00:49:47;98854.16;;;14.71
69186;BMP280;56298;49.246;9.410;2023-08-31T00:52:12;98848.22;;;14.68
69186;BMP280;56298;49.246;9.410;2023-08-31T00:54:38;98852.94;;;14.68
69186;BMP280;56298;49.246;9.410;2023-08-31T00:57:03;98857.28;;;14.54
69186;BMP280;56298;49.246;9.410;2023-08-31T00:59:29;98861.66;;;14.45
69186;BMP280;56298;49.246;9.410;2023-08-31T01:08:03;98866.75;;;14.32
69186;BMP280;56298;49.246;9.410;2023-08-31T01:10:39;98867.16;;;14.30
69186;BMP280;56298;49.246;9.410;2023-08-31T01:13:11;98882.13;;;14.29
69186;BMP280;56298;49.246;9.410;2023-08-31T01:15:41;98877.41;;;14.26
69186;BMP280;56298;49.246;9.410;2023-08-31T01:18:10;98878.59;;;14.21
69186;BMP280;56298;49.246;9.410;2023-08-31T01:21:00;98885.28;;;14.17
69186;BMP280;56298;49.246;9.410;2023-08-31T01:23:42;98882.13;;;14.18
69186;BMP280;56298;49.246;9.410;2023-08-31T01:26:08;98874.25;;;14.20
69186;BMP280;56298;49.246;9.410;2023-08-31T01:28:33;98877.38;;;14.19
69186;BMP280;56298;49.246;9.410;2023-08-31T01:31:03;98881.34;;;14.14
69186;BMP280;56298;49.246;9.410;2023-08-31T01:33:29;98882.91;;;14.15
69186;BMP280;56298;49.246;9.410;2023-08-31T01:35:55;98879.34;;;14.15
69186;BMP280;56298;49.246;9.410;2023-08-31T01:38:25;98871.09;;;14.15
69186;BMP280;56298;49.246;9.410;2023-08-31T01:40:56;98869.50;;;14.14
69186;BMP280;56298;49.246;9.410;2023-08-31T01:43:26;98867.53;;;14.07
69186;BMP280;56298;49.246;9.410;2023-08-31T01:45:52;98876.19;;;14.05
69186;BMP280;56298;49.246;9.410;2023-08-31T01:48:17;98877.78;;;14.06
69186;BMP280;56298;49.246;9.410;2023-08-31T01:50:43;98886.81;;;14.07
69186;BMP280;56298;49.246;9.410;2023-08-31T01:53:09;98887.25;;;14.09
69186;BMP280;56298;49.246;9.410;2023-08-31T01:55:34;98895.09;;;14.10
69186;BMP280;56298;49.246;9.410;2023-08-31T01:57:59;98890.38;;;14.11
69186;BMP280;56298;49.246;9.410;2023-08-31T02:00:25;98893.91;;;14.08
69186;BMP280;56298;49.246;9.410;2023-08-31T02:02:51;98900.22;;;14.08
69186;BMP280;56298;49.246;9.410;2023-08-31T02:05:16;98899.06;;;14.09
69186;BMP280;56298;49.246;9.410;2023-08-31T02:07:41;98908.53;;;14.23
69186;BMP280;56298;49.246;9.410;2023-08-31T02:10:07;98903.81;;;14.27
69186;BMP280;56298;49.246;9.410;2023-08-31T02:12:33;98903.00;;;14.37
69186;BMP280;56298;49.246;9.410;2023-08-31T02:14:58;98901.06;;;14.45
69186;BMP280;56298;49.246;9.410;2023-08-31T02:17:24;98902.25;;;14.55
69186;BMP280;56298;49.246;9.410;2023-08-31T02:19:50;98906.19;;;14.58
69186;BMP280;56298;49.246;9.410;2023-08-31T02:22:15;98919.19;;;14.61
69186;BMP280;56298;49.246;9.410;2023-08-31T02:24:41;98910.91;;;14.68
69186;BMP280;56298;49.246;9.410;2023-08-31T02:27:06;98897.91;;;14.68
69186;BMP280;56298;49.246;9.410;2023-08-31T02:29:31;98910.94;;;14.64
69186;BMP280;56298;49.246;9.410;2023-08-31T02:31:57;98910.53;;;14.66
69186;BMP280;56298;49.246;9.410;2023-08-31T02:34:22;98910.13;;;14.78
69186;BMP280;56298;49.246;9.410;2023-08-31T02:36:47;98909.34;;;14.74
69186;BMP280;56298;49.246;9.410;2023-08-31T02:39:12;98912.88;;;14.86
69186;BMP280;56298;49.246;9.410;2023-08-31T02:41:38;98918.78;;;14.88
69186;BMP280;56298;49.246;9.410;2023-08-31T02:44:04;98910.91;;;14.90
69186;BMP280;56298;49.246;9.410;2023-08-31T02:46:29;98903.78;;;14.96
69186;BMP280;56298;49.246;9.410;2023-08-31T02:48:54;98910.50;;;14.95
69186;BMP280;56298;49.246;9.410;2023-08-31T02:51:19;98911.28;;;14.99
69186;BMP280;56298;49.246;9.410;2023-08-31T02:53:45;98913.66;;;14.82
69186;BMP280;56298;49.246;9.410;2023-08-31T02:56:10;98915.25;;;14.65
69186;BMP280;56298;49.246;9.410;2023-08-31T02:58:35;98911.72;;;14.72
69186;BMP280;56298;49.246;9.410;2023-08-31T03:01:11;98908.56;;;14.70
69186;BMP280;56298;49.246;9.410;2023-08-31T03:03:41;98909.72;;;14.62
69186;BMP280;56298;49.246;9.410;2023-08-31T03:06:07;98915.25;;;14.65
69186;BMP280;56298;49.246;9.410;2023-08-31T03:08:33;98916.44;;;14.64
69186;BMP280;56298;49.246;9.410;2023-08-31T03:10:58;98908.56;;;14.59
69186;BMP280;56298;49.246;9.410;2023-08-31T03:13:24;98908.56;;;14.56
69186;BMP280;56298;49.246;9.410;2023-08-31T03:15:49;98914.84;;;14.56
69186;BMP280;56298;49.246;9.410;2023-08-31T03:18:14;98908.56;;;14.59
69186;BMP280;56298;49.246;9.410;2023-08-31T03:20:40;98916.03;;;14.62
69186;BMP280;56298;49.246;9.410;2023-08-31T03:23:05;98914.06;;;14.66
69186;BMP280;56298;49.246;9.410;2023-08-31T03:25:30;98910.13;;;14.57
69186;BMP280;56298;49.246;9.410;2023-08-31T03:27:55;98916.44;;;14.61
69186;BMP280;56298;49.246;9.410;2023-08-31T03:30:21;98921.94;;;14.57
69186;BMP280;56298;49.246;9.410;2023-08-31T03:32:46;98918.41;;;14.60
69186;BMP280;56298;49.246;9.410;2023-08-31T03:35:11;98915.28;;;14.58
69186;BMP280;56298;49.246;9.410;2023-08-31T03:37:37;98924.34;;;14.66
69186;BMP280;56298;49.246;9.410;2023-08-31T03:40:02;98925.13;;;14.56
69186;BMP280;56298;49.246;9.410;2023-08-31T03:42:29;98924.72;;;14.64
69186;BMP280;56298;49.246;9.410;2023-08-31T03:44:54;98931.41;;;14.67
69186;BMP280;56298;49.246;9.410;2023-08-31T03:47:19;98928.28;;;14.72
69186;BMP280;56298;49.246;9.410;2023-08-31T03:49:45;98934.19;;;14.78
69186;BMP280;56298;49.246;9.410;2023-08-31T03:52:10;98933.38;;;14.74
69186;BMP280;56298;49.246;9.410;2023-08-31T03:54:35;98937.75;;;14.71
69186;BMP280;56298;49.246;9.410;2023-08-31T03:57:00;98938.91;;;14.66
69186;BMP280;56298;49.246;9.410;2023-08-31T03:59:26;98949.56;;;14.61
69186;BMP280;56298;49.246;9.410;2023-08-31T04:01:51;98938.13;;;14.66
69186;BMP280;56298;49.246;9.410;2023-08-31T04:04:16;98934.97;;;14.71
69186;BMP280;56298;49.246;9.410;2023-08-31T04:06:41;98934.19;;;14.74
69186;BMP280;56298;49.246;9.410;2023-08-31T04:09:07;98940.88;;;14.73
69186;BMP280;56298;49.246;9.410;2023-08-31T04:11:32;98946.41;;;14.70
69186;BMP280;56298;49.246;9.410;2023-08-31T04:13:58;98954.69;;;14.59
69186;BMP280;56298;49.246;9.410;2023-08-31T04:16:23;98944.03;;;14.64
69186;BMP280;56298;49.246;9.410;2023-08-31T04:18:48;98950.72;;;14.71
69186;BMP280;56298;49.246;9.410;2023-08-31T04:21:17;98953.91;;;14.73
69186;BMP280;56298;49.246;9.410;2023-08-31T04:23:42;98958.22;;;14.81
69186;BMP280;56298;49.246;9.410;2023-08-31T04:26:14;98955.06;;;14.79
69186;BMP280;56298;49.246;9.410;2023-08-31T04:28:40;98960.19;;;14.73
69186;BMP280;56298;49.246;9.410;2023-08-31T04:31:09;98956.25;;;14.71
69186;BMP280;56298;49.246;9.410;2023-08-31T04:33:35;98957.03;;;14.46
69186;BMP280;56298;49.246;9.410;2023-08-31T04:36:00;98961.34;;;14.50
69186;BMP280;56298;49.246;9.410;2023-08-31T04:38:25;98960.59;;;14.53
69186;BMP280;56298;49.246;9.410;2023-08-31T04:40:51;98968.47;;;14.48
69186;BMP280;56298;49.246;9.410;2023-08-31T04:43:16;98973.97;;;14.48
69186;BMP280;56298;49.246;9.410;2023-08-31T04:45:42;98977.13;;;14.50
69186;BMP280;56298;49.246;9.410;2023-08-31T04:48:07;98982.66;;;14.50
69186;BMP280;56298;49.246;9.410;2023-08-31T04:50:32;98987.38;;;14.46
69186;BMP280;56298;49.246;9.410;2023-08-31T04:52:58;98991.69;;;14.43
69186;BMP280;56298;49.246;9.410;2023-08-31T04:55:23;98987.00;;;14.47
69186;BMP280;56298;49.246;9.410;2023-08-31T04:57:48;98985.78;;;14.48
69186;BMP280;56298;49.246;9.410;2023-08-31T05:00:14;98991.31;;;14.48
69186;BMP280;56298;49.246;9.410;2023-08-31T05:02:39;98999.22;;;14.53
69186;BMP280;56298;49.246;9.410;2023-08-31T05:05:05;98989.72;;;14.54
69186;BMP280;56298;49.246;9.410;2023-08-31T05:07:30;98995.28;;;14.65
69186;BMP280;56298;49.246;9.410;2023-08-31T05:09:56;98994.09;;;14.59
69186;BMP280;56298;49.246;9.410;2023-08-31T05:12:21;99001.22;;;14.71
69186;BMP280;56298;49.246;9.410;2023-08-31T05:14:46;99007.13;;;14.77
69186;BMP280;56298;49.246;9.410;2023-08-31T05:17:11;99009.91;;;14.77
69186;BMP280;56298;49.246;9.410;2023-08-31T05:19:37;99012.25;;;14.86
69186;BMP280;56298;49.246;9.410;2023-08-31T05:22:02;99011.47;;;15.00
69186;BMP280;56298;49.246;9.410;2023-08-31T05:24:27;99014.63;;;15.05
69186;BMP280;56298;49.246;9.410;2023-08-31T05:26:53;99024.91;;;15.05
69186;BMP280;56298;49.246;9.410;2023-08-31T05:29:18;99024.47;;;15.06
69186;BMP280;56298;49.246;9.410;2023-08-31T05:31:43;99027.25;;;15.14
69186;BMP280;56298;49.246;9.410;2023-08-31T05:34:16;99037.09;;;15.18
69186;BMP280;56298;49.246;9.410;2023-08-31T05:36:41;99036.72;;;15.31
69186;BMP280;56298;49.246;9.410;2023-08-31T05:39:06;99042.59;;;15.33
69186;BMP280;56298;49.246;9.410;2023-08-31T05:41:33;99040.25;;;15.35
69186;BMP280;56298;49.246;9.410;2023-08-31T05:43:58;99044.22;;;15.23
69186;BMP280;56298;49.246;9.410;2023-08-31T05:46:23;99044.22;;;15.12
69186;BMP280;56298;49.246;9.410;2023-08-31T05:48:49;99047.38;;;15.18
69186;BMP280;56298;49.246;9.410;2023-08-31T05:51:14;99048.09;;;15.58
69186;BMP280;56298;49.246;9.410;2023-08-31T05:53:39;99046.06;;;15.88
69186;BMP280;56298;49.246;9.410;2023-08-31T05:56:04;99049.06;;;16.22
69186;BMP280;56298;49.246;9.410;2023-08-31T05:58:34;99045.72;;;16.60
69186;BMP280;56298;49.246;9.410;2023-08-31T06:01:03;99043.09;;;16.91
69186;BMP280;56298;49.246;9.410;2023-08-31T06:03:29;99047.16;;;17.25
69186;BMP280;56298;49.246;9.410;2023-08-31T06:05:58;99039.16;;;17.69
69186;BMP280;56298;49.246;9.410;2023-08-31T06:08:24;99050.06;;;17.87
69186;BMP280;56298;49.246;9.410;2023-08-31T06:10:50;99059.59;;;18.17
69186;BMP280;56298;49.246;9.410;2023-08-31T06:13:16;99048.81;;;18.23
69186;BMP280;56298;49.246;9.410;2023-08-31T06:15:41;99053.16;;;18.51
69186;BMP280;56298;49.246;9.410;2023-08-31T06:18:06;99052.47;;;18.71
69186;BMP280;56298;49.246;9.410;2023-08-31T06:20:32;99054.44;;;18.70
69186;BMP280;56298;49.246;9.410;2023-08-31T06:22:58;99047.56;;;18.24
69186;BMP280;56298;49.246;9.410;2023-08-31T06:25:24;99058.94;;;18.06
69186;BMP280;56298;49.246;9.410;2023-08-31T06:27:49;99058.59;;;17.69
69186;BMP280;56298;49.246;9.410;2023-08-31T06:30:14;99067.28;;;17.71
69186;BMP280;56298;49.246;9.410;2023-08-31T06:32:43;99073.09;;;17.46
69186;BMP280;56298;49.246;9.410;2023-08-31T06:35:09;99077.00;;;17.48
69186;BMP280;56298;49.246;9.410;2023-08-31T06:37:35;99081.31;;;17.53
69186;BMP280;56298;49.246;9.410;2023-08-31T06:40:00;99074.44;;;17.30
69186;BMP280;56298;49.246;9.410;2023-08-31T06:42:25;99072.72;;;17.44
69186;BMP280;56298;49.246;9.410;2023-08-31T06:44:50;99074.81;;;17.28
69186;BMP280;56298;49.246;9.410;2023-08-31T06:47:16;99079.41;;;17.04
69186;BMP280;56298;49.246;9.410;2023-08-31T06:49:42;99086.84;;;17.11
69186;BMP280;56298;49.246;9.410;2023-08-31T06:52:08;99085.91;;;17.28
69186;BMP280;56298;49.246;9.410;2023-08-31T06:54:33;99096.19;;;17.32
69186;BMP280;56298;49.246;9.410;2023-08-31T06:56:59;99096.91;;;17.39
69186;BMP280;56298;49.246;9.410;2023-08-31T06:59:24;99105.91;;;17.51
69186;BMP280;56298;49.246;9.410;2023-08-31T07:01:49;99092.97;;;18.10
69186;BMP280;56298;49.246;9.410;2023-08-31T07:04:15;99104.91;;;18.93
69186;BMP280;56298;49.246;9.410;2023-08-31T07:06:40;99107.69;;;19.16
69186;BMP280;56298;49.246;9.410;2023-08-31T07:09:05;99102.56;;;19.59
69186;BMP280;56298;49.246;9.410;2023-08-31T07:11:33;99110.94;;;21.19
69186;BMP280;56298;49.246;9.410;2023-08-31T07:13:58;99108.84;;;21.95
69186;BMP280;56298;49.246;9.410;2023-08-31T07:16:24;99109.91;;;22.88
69186;BMP280;56298;49.246;9.410;2023-08-31T07:18:49;99108.97;;;23.04
69186;BMP280;56298;49.246;9.410;2023-08-31T07:21:14;99109.53;;;22.51
69186;BMP280;56298;49.246;9.410;2023-08-31T07:23:40;99113.19;;;21.96
69186;BMP280;56298;49.246;9.410;2023-08-31T07:26:05;99123.13;;;21.25
69186;BMP280;56298;49.246;9.410;2023-08-31T07:28:30;99128.16;;;20.84
69186;BMP280;56298;49.246;9.410;2023-08-31T07:31:06;99126.88;;;20.52
69186;BMP280;56298;49.246;9.410;2023-08-31T07:33:32;99139.44;;;20.24
69186;BMP280;56298;49.246;9.410;2023-08-31T07:35:59;99137.88;;;20.02
69186;BMP280;56298;49.246;9.410;2023-08-31T07:38:25;99141.31;;;19.70
69186;BMP280;56298;49.246;9.410;2023-08-31T07:40:51;99146.09;;;19.69
69186;BMP280;56298;49.246;9.410;2023-08-31T07:43:16;99149.50;;;19.77
69186;BMP280;56298;49.246;9.410;2023-08-31T07:45:42;99146.91;;;19.66
69186;BMP280;56298;49.246;9.410;2023-08-31T07:48:07;99152.94;;;19.65
69186;BMP280;56298;49.246;9.410;2023-08-31T07:50:33;99163.53;;;19.50
69186;BMP280;56298;49.246;9.410;2023-08-31T07:52:59;99160.09;;;19.42
69186;BMP280;56298;49.246;9.410;2023-08-31T07:55:24;99159.22;;;19.45
69186;BMP280;56298;49.246;9.410;2023-08-31T07:57:50;99162.94;;;19.82
69186;BMP280;56298;49.246;9.410;2023-08-31T08:00:15;99155.97;;;19.70
69186;BMP280;56298;49.246;9.410;2023-08-31T08:02:40;99154.84;;;19.68
69186;BMP280;56298;49.246;9.410;2023-08-31T08:05:06;99156.28;;;19.76
69186;BMP280;56298;49.246;9.410;2023-08-31T08:07:31;99153.19;;;19.70
69186;BMP280;56298;49.246;9.410;2023-08-31T08:09:57;99149.06;;;19.35
69186;BMP280;56298;49.246;9.410;2023-08-31T08:12:22;99148.00;;;19.28
69186;BMP280;56298;49.246;9.410;2023-08-31T08:14:48;99151.28;;;19.43
69186;BMP280;56298;49.246;9.410;2023-08-31T08:17:13;99149.50;;;19.33
69186;BMP280;56298;49.246;9.410;2023-08-31T08:19:39;99155.53;;;19.04
69186;BMP280;56298;49.246;9.410;2023-08-31T08:22:04;99160.88;;;19.18
69186;BMP280;56298;49.246;9.410;2023-08-31T08:24:29;99152.00;;;19.47
69186;BMP280;56298;49.246;9.410;2023-08-31T08:26:54;99158.22;;;19.35
69186;BMP280;56298;49.246;9.410;2023-08-31T08:29:20;99157.31;;;20.06
69186;BMP280;56298;49.246;9.410;2023-08-31T08:31:45;99161.69;;;20.44
69186;BMP280;56298;49.246;9.410;2023-08-31T08:34:10;99162.16;;;20.59
69186;BMP280;56298;49.246;9.410;2023-08-31T08:36:35;99160.59;;;20.91
69186;BMP280;56298;49.246;9.410;2023-08-31T08:39:01;99170.88;;;21.44
69186;BMP280;56298;49.246;9.410;2023-08-31T08:41:28;99162.50;;;21.73
69186;BMP280;56298;49.246;9.410;2023-08-31T08:43:56;99166.31;;;21.50
69186;BMP280;56298;49.246;9.410;2023-08-31T08:46:22;99173.56;;;21.31
69186;BMP280;56298;49.246;9.410;2023-08-31T08:51:13;99174.31;;;20.85
69186;BMP280;56298;49.246;9.410;2023-08-31T08:53:42;99176.34;;;20.64
69186;BMP280;56298;49.246;9.410;2023-08-31T08:56:08;99183.38;;;21.06
69186;BMP280;56298;49.246;9.410;2023-08-31T08:58:33;99169.25;;;21.59
69186;BMP280;56298;49.246;9.410;2023-08-31T09:00:58;99160.88;;;21.89
69186;BMP280;56298;49.246;9.410;2023-08-31T09:03:24;99171.81;;;21.53
69186;BMP280;56298;49.246;9.410;2023-08-31T09:05:52;99176.91;;;21.09
69186;BMP280;56298;49.246;9.410;2023-08-31T09:08:25;99180.81;;;21.12
69186;BMP280;56298;49.246;9.410;2023-08-31T09:10:51;99190.06;;;21.25
69186;BMP280;56298;49.246;9.410;2023-08-31T09:13:16;99184.25;;;21.36
69186;BMP280;56298;49.246;9.410;2023-08-31T09:15:46;99188.78;;;21.59
69186;BMP280;56298;49.246;9.410;2023-08-31T09:20:48;99192.94;;;21.05
69186;BMP280;56298;49.246;9.410;2023-08-31T09:23:14;99193.63;;;21.25
69186;BMP280;56298;49.246;9.410;2023-08-31T09:25:47;99181.72;;;22.13
69186;BMP280;56298;49.246;9.410;2023-08-31T09:28:15;99188.38;;;21.90
69186;BMP280;56298;49.246;9.410;2023-08-31T09:30:41;99186.63;;;21.80
69186;BMP280;56298;49.246;9.410;2023-08-31T09:33:14;99186.78;;;21.60
69186;BMP280;56298;49.246;9.410;2023-08-31T09:35:47;99200.25;;;20.99
69186;BMP280;56298;49.246;9.410;2023-08-31T09:38:14;99195.06;;;20.64
69186;BMP280;56298;49.246;9.410;2023-08-31T09:40:39;99198.53;;;20.31
69186;BMP280;56298;49.246;9.410;2023-08-31T09:43:05;99203.00;;;19.88
69186;BMP280;56298;49.246;9.410;2023-08-31T09:45:32;99195.44;;;20.09
69186;BMP280;56298;49.246;9.410;2023-08-31T09:47:59;99207.50;;;20.23
69186;BMP280;56298;49.246;9.410;2023-08-31T09:50:27;99202.13;;;20.32
69186;BMP280;56298;49.246;9.410;2023-08-31T09:52:55;99204.69;;;20.43
69186;BMP280;56298;49.246;9.410;2023-08-31T09:55:21;99203.50;;;20.60
69186;BMP280;56298;49.246;9.410;2023-08-31T09:57:50;99202.50;;;20.71
69186;BMP280;56298;49.246;9.410;2023-08-31T10:00:16;99196.88;;;20.54
69186;BMP280;56298;49.246;9.410;2023-08-31T10:02:43;99203.88;;;20.62
69186;BMP280;56298;49.246;9.410;2023-08-31T10:05:09;99202.56;;;20.67
69186;BMP280;56298;49.246;9.410;2023-08-31T10:07:34;99203.16;;;20.58
69186;BMP280;56298;49.246;9.410;2023-08-31T10:10:00;99196.78;;;20.41
69186;BMP280;56298;49.246;9.410;2023-08-31T10:12:27;99200.88;;;20.53
69186;BMP280;56298;49.246;9.410;2023-08-31T10:14:53;99198.59;;;20.68
69186;BMP280;56298;49.246;9.410;2023-08-31T10:17:20;99201.41;;;20.64
69186;BMP280;56298;49.246;9.410;2023-08-31T10:19:46;99208.63;;;21.15
69186;BMP280;56298;49.246;9.410;2023-08-31T10:22:11;99204.03;;;21.71
69186;BMP280;56298;49.246;9.410;2023-08-31T10:25:06;99213.66;;;22.12
69186;BMP280;56298;49.246;9.410;2023-08-31T10:27:39;99204.88;;;22.27
69186;BMP280;56298;49.246;9.410;2023-08-31T10:30:25;99200.16;;;22.24
69186;BMP280;56298;49.246;9.410;2023-08-31T10:35:41;99205.22;;;21.87
69186;BMP280;56298;49.246;9.410;2023-08-31T10:38:17;99208.06;;;22.12
69186;BMP280;56298;49.246;9.410;2023-08-31T10:43:28;99198.28;;;22.34
69186;BMP280;56298;49.246;9.410;2023-08-31T10:46:17;99203.31;;;22.52
69186;BMP280;56298;49.246;9.410;2023-08-31T10:49:01;99208.09;;;22.25
69186;BMP280;56298;49.246;9.410;2023-08-31T10:51:31;99202.13;;;21.97
69186;BMP280;56298;49.246;9.410;2023-08-31T10:59:20;99192.75;;;22.04
69186;BMP280;56298;49.246;9.410;2023-08-31T11:04:22;99193.03;;;21.64
69186;BMP280;56298;49.246;9.410;2023-08-31T11:06:47;99193.97;;;21.44
69186;BMP280;56298;49.246;9.410;2023-08-31T11:09:20;99194.88;;;21.08
69186;BMP280;56298;49.246;9.410;2023-08-31T11:11:46;99191.09;;;21.31
69186;BMP280;56298;49.246;9.410;2023-08-31T11:14:12;99195.88;;;21.47
69186;BMP280;56298;49.246;9.410;2023-08-31T11:16:38;99188.06;;;21.72
69186;BMP280;56298;49.246;9.410;2023-08-31T11:19:03;99194.00;;;21.74
69186;BMP280;56298;49.246;9.410;2023-08-31T11:21:30;99175.53;;;21.93
69186;BMP280;56298;49.246;9.410;2023-08-31T11:23:56;99186.09;;;21.55
69186;BMP280;56298;49.246;9.410;2023-08-31T11:26:24;99186.63;;;21.80
69186;BMP280;56298;49.246;9.410;2023-08-31T11:28:49;99186.34;;;21.61
69186;BMP280;56298;49.246;9.410;2023-08-31T11:31:23;99189.88;;;21.32
69186;BMP280;56298;49.246;9.410;2023-08-31T11:33:48;99187.63;;;20.94
69186;BMP280;56298;49.246;9.410;2023-08-31T11:36:14;99181.19;;;20.97
69186;BMP280;56298;49.246;9.410;2023-08-31T11:38:42;99182.28;;;21.33
69186;BMP280;56298;49.246;9.410;2023-08-31T11:41:08;99176.09;;;21.71
69186;BMP280;56298;49.246;9.410;2023-08-31T11:43:33;99174.00;;;22.05
69186;BMP280;56298;49.246;9.410;2023-08-31T11:45:59;99175.25;;;22.29
69186;BMP280;56298;49.246;9.410;2023-08-31T11:48:25;99169.56;;;22.72
69186;BMP280;56298;49.246;9.410;2023-08-31T11:50:50;99171.19;;;23.08
69186;BMP280;56298;49.246;9.410;2023-08-31T11:53:18;99168.63;;;23.01
69186;BMP280;56298;49.246;9.410;2023-08-31T11:55:53;99165.53;;;22.86
69186;BMP280;56298;49.246;9.410;2023-08-31T11:58:19;99166.97;;;22.90
69186;BMP280;56298;49.246;9.410;2023-08-31T12:00:45;99173.28;;;23.17
69186;BMP280;56298;49.246;9.410;2023-08-31T12:03:12;99171.72;;;23.16
69186;BMP280;56298;49.246;9.410;2023-08-31T12:05:48;99170.13;;;23.28
69186;BMP280;56298;49.246;9.410;2023-08-31T12:08:23;99175.41;;;23.26
69186;BMP280;56298;49.246;9.410;2023-08-31T12:10:49;99177.50;;;22.73
69186;BMP280;56298;49.246;9.410;2023-08-31T12:13:14;99179.03;;;22.10
69186;BMP280;56298;49.246;9.410;2023-08-31T12:15:40;99184.38;;;21.75
69186;BMP280;56298;49.246;9.410;2023-08-31T12:18:12;99186.84;;;21.10
69186;BMP280;56298;49.246;9.410;2023-08-31T12:20:51;99198.81;;;20.74
69186;BMP280;56298;49.246;9.410;2023-08-31T12:23:19;99186.78;;;20.24
69186;BMP280;56298;49.246;9.410;2023-08-31T12:25:51;99189.34;;;20.14
69186;BMP280;56298;49.246;9.410;2023-08-31T12:28:21;99196.50;;;20.15
69186;BMP280;56298;49.246;9.410;2023-08-31T12:30:48;99195.41;;;20.29
69186;BMP280;56298;49.246;9.410;2023-08-31T12:33:14;99196.69;;;20.45
69186;BMP280;56298;49.246;9.410;2023-08-31T12:35:40;99195.31;;;21.06
69186;BMP280;56298;49.246;9.410;2023-08-31T12:38:05;99191.09;;;21.31
69186;BMP280;56298;49.246;9.410;2023-08-31T12:40:30;99196.44;;;21.72
69186;BMP280;56298;49.246;9.410;2023-08-31T12:42:55;99204.75;;;21.88
69186;BMP280;56298;49.246;9.410;2023-08-31T12:45:21;99191.63;;;22.02
69186;BMP280;56298;49.246;9.410;2023-08-31T12:47:46;99194.13;;;21.83
69186;BMP280;56298;49.246;9.410;2023-08-31T12:50:12;99194.97;;;21.96
69186;BMP280;56298;49.246;9.410;2023-08-31T12:52:38;99188.63;;;22.09
69186;BMP280;56298;49.246;9.410;2023-08-31T12:55:10;99186.44;;;22.29
69186;BMP280;56298;49.246;9.410;2023-08-31T12:57:35;99185.91;;;22.48
69186;BMP280;56298;49.246;9.410;2023-08-31T13:00:00;99191.47;;;22.60
69186;BMP280;56298;49.246;9.410;2023-08-31T13:02:25;99188.56;;;22.64
69186;BMP280;56298;49.246;9.410;2023-08-31T13:04:51;99175.94;;;22.59
69186;BMP280;56298;49.246;9.410;2023-08-31T13:07:16;99182.31;;;22.86
69186;BMP280;56298;49.246;9.410;2023-08-31T13:09:41;99183.41;;;23.01
69186;BMP280;56298;49.246;9.410;2023-08-31T13:12:06;99179.13;;;22.97
69186;BMP280;56298;49.246;9.410;2023-08-31T13:14:32;99188.56;;;22.64
69186;BMP280;56298;49.246;9.410;2023-08-31T13:16:57;99192.72;;;22.47
69186;BMP280;56298;49.246;9.410;2023-08-31T13:19:22;99190.03;;;22.43
69186;BMP280;56298;49.246;9.410;2023-08-31T13:21:48;99186.13;;;22.27
69186;BMP280;56298;49.246;9.410;2023-08-31T13:24:13;99196.66;;;22.20
69186;BMP280;56298;49.246;9.410;2023-08-31T13:26:39;99196.78;;;22.03
69186;BMP280;56298;49.246;9.410;2023-08-31T13:29:04;99199.50;;;22.33
69186;BMP280;56298;49.246;9.410;2023-08-31T13:31:30;99195.03;;;22.48
69186;BMP280;56298;49.246;9.410;2023-08-31T13:33:55;99189.78;;;22.76
69186;BMP280;56298;49.246;9.410;2023-08-31T13:36:20;99173.81;;;22.77
69186;BMP280;56298;49.246;9.410;2023-08-31T13:38:45;99180.66;;;22.63
69186;BMP280;56298;49.246;9.410;2023-08-31T13:41:10;99174.63;;;22.51
69186;BMP280;56298;49.246;9.410;2023-08-31T13:43:36;99178.19;;;22.39
69186;BMP280;56298;49.246;9.410;2023-08-31T13:46:01;99172.75;;;22.06
69186;BMP280;56298;49.246;9.410;2023-08-31T13:48:26;99169.72;;;22.00
69186;BMP280;56298;49.246;9.410;2023-08-31T13:50:52;99167.63;;;22.17
69186;BMP280;56298;49.246;9.410;2023-08-31T13:53:17;99160.59;;;22.25
69186;BMP280;56298;49.246;9.410;2023-08-31T13:55:42;99158.63;;;22.65
69186;BMP280;56298;49.246;9.410;2023-08-31T13:58:08;99159.09;;;22.63
69186;BMP280;56298;49.246;9.410;2023-08-31T14:00:36;99163.00;;;23.14
69186;BMP280;56298;49.246;9.410;2023-08-31T14:03:01;99162.66;;;23.12
69186;BMP280;56298;49.246;9.410;2023-08-31T14:05:30;99152.69;;;22.75
69186;BMP280;56298;49.246;9.410;2023-08-31T14:07:56;99158.16;;;22.66
69186;BMP280;56298;49.246;9.410;2023-08-31T14:10:23;99169.56;;;22.72
69186;BMP280;56298;49.246;9.410;2023-08-31T14:12:48;99161.31;;;22.55
69186;BMP280;56298;49.246;9.410;2023-08-31T14:15:13;99163.41;;;22.77
69186;BMP280;56298;49.246;9.410;2023-08-31T14:17:38;99161.97;;;22.72
69186;BMP280;56298;49.246;9.410;2023-08-31T14:20:04;99159.59;;;22.45
69186;BMP280;56298;49.246;9.410;2023-08-31T14:22:34;99155.72;;;22.55
69186;BMP280;56298;49.246;9.410;2023-08-31T14:25:00;99166.91;;;22.55
69186;BMP280;56298;49.246;9.410;2023-08-31T14:27:26;99161.72;;;22.41
69186;BMP280;56298;49.246;9.410;2023-08-31T14:29:52;99161.84;;;22.24